Ogden, KS

3:07 PM CST on December 18, 2014 (GMT -0600)
Manhattan Regional | Change Station
CLOSE
Current Station
Airport
Location: Manhattan,
Elevation: 1056 ft
Nearby Weather Stations

Elev 1056 ft 39.14 °N, 96.68 °W | Updated 15 minutes ago

Overcast
Overcast
34 °F
Feels Like 34 °F
N
0
Wind Variable Wind from North

Today
High -- | Low -- °F
--% Chance of Precip.
Yesterday
High -- | Low -- °F
Precip. -- in
7:40 AM 5:05 PM
Waning Crescent, 12% visible
Pressure 30.22 in
Visibility 7.0 miles
Clouds Overcast 1200 ft
Dew Point 29 °F
Humidity 82%
Rainfall 0.11 in
Snow Depth Not available.
UV 0 out of 12
Pollen .10 out of 12
Air Quality Not available.
Flu Activity Not available.
METAR KMHK 182052Z 00000KT 7SM OVC012 01/M02 A3019 RMK AO2 SLP234 T00111017 56011

More Conditions Fewer Conditions

Pressure 30.22 in
Visibility 7.0 miles
Clouds Overcast 1200 ft
Dew Point 29 °F
Humidity 82%
Rainfall 0.11 in
Snow Depth Not available.
UV 0 out of 12
Pollen .10 out of 12
Air Quality Not available.
Flu Activity Not available.
METAR KMHK 182052Z 00000KT 7SM OVC012 01/M02 A3019 RMK AO2 SLP234 T00111017 56011

More Conditions Fewer Conditions

10-Day Weather Forecast

Almanac

Astronomy

Dec. 18, 2014 Rise Set
Actual Time
Civil Twilight
Nautical Twilight
Astronomical Twilight
Moon
Length of Visible Light
Length of Day
Tomorrow will be .
, % of the Moon is Illuminated

Today's Extremes

State Highs State Lows

Community

WunderPhotos

Upload Photos

1,778,997 photos uploaded!

WunderBlogs® & News

Nearby

Air Quality

  Air Quality AQ Index Pollutant
Not available.

Snow Depth

Station Depth Elevation

Earthquake Activity

City Distance Mag. Time & Date
Minimum magnitude displayed is 2.5.

Coastal Water Temperatures

Place Temperature

Nearby Weather Stations